Shamrock — SIHM — position and weather

sailwx.info

Track history (hours):
 
Tides and Currents Weather Stations Pressure Air Temp Water Temp Dewpoint Dewpoint Depression Visibility Wind Speed Wind Dir Waves Ship Positions

Shamrock

Last reported at 2017-Jul-25 07:40 UTC. Time now 2017-Jul-26 00:49 UTC.
Position N 62°36' E 018°05'.

Length 26 m; draft 3 m.

Type: Sailing vessel. MMSI: 265572260.

Date/timePositionNaut miles runAvg speedWind from/ knotsBaromVisibWave heightAir tempDewpointWater temp
2017-Jul-25 07:40N 62°36' E 018°05'2 4.2
2017-Jul-25 07:15N 62°34' E 018°03'91 2.0
2017-Jul-23 08:57N 61°04' E 017°42'6 2.4
2017-Jul-23 06:30N 60°58' E 017°47'2 3.1
2017-Jul-23 05:55N 60°57' E 017°48'1 2.9
2017-Jul-23 05:30N 60°56' E 017°49'4 3.6
2017-Jul-23 04:28N 60°52' E 017°52'2 2.6
2017-Jul-23 03:49N 60°51' E 017°54'1 2.3
2017-Jul-23 03:30N 60°50' E 017°54'2 2.7
2017-Jul-23 02:55N 60°49' E 017°56'2 2.6
2017-Jul-23 02:15N 60°47' E 017°57'0 0.1
2017-Jul-23 01:18N 60°47' E 017°58'0 0.2
2017-Jul-23 01:01N 60°47' E 017°58'0 0.2
2017-Jul-23 00:30N 60°47' E 017°58'0 0.2
2017-Jul-23 00:01N 60°47' E 017°58'0 0.3
2017-Jul-22 23:30N 60°47' E 017°58'0 0.3
2017-Jul-22 23:00N 60°47' E 017°58'0 0.5
2017-Jul-22 22:30N 60°46' E 017°58'0 0.7
2017-Jul-22 22:00N 60°46' E 017°59'0 0.9
2017-Jul-22 21:30N 60°46' E 017°59'1 1.8
2017-Jul-22 21:00N 60°45' E 017°60'1 2.3
2017-Jul-22 20:30N 60°44' E 018°01'1 2.3
2017-Jul-22 20:01N 60°43' E 018°02'1 2.4
2017-Jul-22 19:30N 60°42' E 018°03'1 2.2
2017-Jul-22 19:01N 60°41' E 018°04'1 2.8
2017-Jul-22 18:31N 60°40' E 018°06'2 3.0
2017-Jul-22 18:01N 60°38' E 018°07'1 2.1
2017-Jul-22 17:30N 60°37' E 018°08'1 2.8
2017-Jul-22 16:59N 60°36' E 018°09'28 4.5
2017-Jul-22 10:48N 60°14' E 018°43'2 5.9
2017-Jul-22 10:28N 60°13' E 018°46'3 5.9
2017-Jul-22 10:00N 60°11' E 018°50'3 5.9
2017-Jul-22 09:30N 60°08' E 018°53'1 1.6
2017-Jul-22 09:00N 60°08' E 018°54'1 1.8
2017-Jul-22 08:30N 60°07' E 018°55'1 1.7
2017-Jul-22 08:00N 60°06' E 018°56'1 1.1
2017-Jul-22 07:31N 60°06' E 018°56'1 1.1
2017-Jul-22 07:00N 60°05' E 018°57'1 2.1
2017-Jul-22 06:30N 60°04' E 018°57'1 1.9
2017-Jul-22 06:00N 60°03' E 018°58'1 2.4
2017-Jul-22 05:30N 60°02' E 018°59'1 2.3
2017-Jul-22 05:00N 60°01' E 019°00'1 2.1
2017-Jul-22 04:30N 60°00' E 019°01'1 2.2
2017-Jul-22 04:00N 59°59' E 019°03'1 2.6
2017-Jul-22 03:30N 59°58' E 019°04'1 2.2
2017-Jul-22 03:00N 59°57' E 019°05'1 1.7
2017-Jul-22 02:30N 59°57' E 019°06'0 0.7
2017-Jul-22 02:00N 59°56' E 019°06'0 0.3
2017-Jul-22 01:30N 59°56' E 019°06'0 0.3
2017-Jul-22 01:00N 59°56' E 019°06'0 0.3
2017-Jul-22 00:30N 59°56' E 019°06'0 0.2
2017-Jul-22 00:00N 59°56' E 019°06'0 0.2
2017-Jul-21 23:30N 59°56' E 019°06'0 0.1
2017-Jul-21 23:00N 59°56' E 019°05'0 0.1
2017-Jul-21 22:30N 59°56' E 019°05'0 0.1
2017-Jul-21 22:00N 59°56' E 019°05'0 0.3
2017-Jul-21 21:30N 59°56' E 019°05'2 4.4
2017-Jul-21 21:00N 59°54' E 019°07'1 2.6
2017-Jul-21 20:30N 59°53' E 019°08'2 3.9
2017-Jul-21 20:00N 59°51' E 019°08'0 0.5
2017-Jul-21 19:28N 59°51' E 019°07'0 0.0
2017-Jul-21 18:55N 59°51' E 019°07'0 0.0
2017-Jul-21 18:28N 59°51' E 019°07'0 0.0
2017-Jul-21 17:58N 59°51' E 019°07'0 0.0
2017-Jul-21 17:28N 59°51' E 019°07'0 0.0
2017-Jul-21 16:55N 59°51' E 019°07'0 0.0
2017-Jul-21 16:26N 59°51' E 019°07'0 0.0
2017-Jul-21 15:58N 59°51' E 019°07'0 0.0
2017-Jul-21 15:25N 59°51' E 019°07'0 0.0
2017-Jul-21 14:49N 59°51' E 019°07'0 0.0
2017-Jul-21 14:28N 59°51' E 019°07'0 0.0
2017-Jul-21 13:58N 59°51' E 019°07'0 0.0
2017-Jul-21 13:28N 59°51' E 019°07'0 0.0
2017-Jul-21 12:58N 59°51' E 019°07'0 0.0
2017-Jul-21 12:28N 59°51' E 019°07'0 0.0
2017-Jul-21 11:55N 59°51' E 019°07'0 0.0
2017-Jul-21 11:25N 59°51' E 019°07'0 0.0
2017-Jul-21 10:58N 59°51' E 019°07'0 0.0
2017-Jul-21 10:28N 59°51' E 019°07'0 0.0
2017-Jul-21 09:58N 59°51' E 019°07'0 0.0
2017-Jul-21 09:25N 59°51' E 019°07'0 0.0
2017-Jul-21 08:58N 59°51' E 019°07'0 0.0
2017-Jul-21 08:28N 59°51' E 019°07'0 0.0
2017-Jul-21 07:58N 59°51' E 019°07'0 0.0
2017-Jul-21 07:28N 59°51' E 019°07'0 0.0
2017-Jul-21 06:58N 59°51' E 019°07'0 0.0
2017-Jul-21 06:28N 59°51' E 019°07'0 0.0
2017-Jul-21 05:58N 59°51' E 019°07'0 0.0
2017-Jul-21 05:28N 59°51' E 019°07'0 0.0
2017-Jul-21 04:58N 59°51' E 019°07'0 0.0
2017-Jul-21 04:28N 59°51' E 019°07'0 0.0
2017-Jul-21 03:58N 59°51' E 019°07'0 0.0
2017-Jul-21 03:28N 59°51' E 019°08'0 0.0
2017-Jul-21 02:58N 59°51' E 019°07'0 0.0
2017-Jul-21 02:28N 59°51' E 019°07'0 0.0
2017-Jul-21 01:58N 59°51' E 019°07'0 0.0
2017-Jul-21 01:22N 59°51' E 019°07'0 0.0
2017-Jul-21 00:58N 59°51' E 019°07'0 0.0
2017-Jul-21 00:25N 59°51' E 019°07'0 0.0
2017-Jul-20 23:58N 59°51' E 019°07'0 0.0
2017-Jul-20 23:28N 59°51' E 019°07'0 0.0
2017-Jul-20 22:58N 59°51' E 019°08'0 0.0
2017-Jul-20 22:25N 59°51' E 019°07'0 0.0
2017-Jul-20 21:52N 59°51' E 019°07'0 0.0
2017-Jul-20 21:28N 59°51' E 019°07'0 0.0
2017-Jul-20 20:59N 59°51' E 019°08'0 0.0
2017-Jul-20 20:16N 59°51' E 019°07'0 0.0
2017-Jul-20 19:52N 59°51' E 019°07'0 0.0
2017-Jul-20 19:28N 59°51' E 019°08'0 0.0
2017-Jul-20 18:58N 59°51' E 019°07'0 0.0
2017-Jul-20 18:28N 59°51' E 019°07'0 0.0
2017-Jul-20 17:55N 59°51' E 019°07'0 0.0
2017-Jul-20 17:28N 59°51' E 019°07'0 0.0
2017-Jul-20 16:55N 59°51' E 019°07'0 0.0
2017-Jul-20 16:29N 59°51' E 019°07'0 0.0
2017-Jul-20 15:58N 59°51' E 019°07'0 0.0
2017-Jul-20 15:28N 59°51' E 019°07'0 0.0
2017-Jul-20 14:58N 59°51' E 019°07'0 0.0
2017-Jul-20 13:58N 59°51' E 019°07'0 0.0
2017-Jul-20 13:28N 59°51' E 019°07'0 0.0
2017-Jul-20 13:00N 59°51' E 019°07'1 2.3
2017-Jul-20 12:30N 59°49' E 019°08'3 5.0
2017-Jul-20 12:00N 59°47' E 019°07'3 5.4
2017-Jul-20 11:30N 59°44' E 019°06'3 5.2
2017-Jul-20 11:01N 59°42' E 019°03'3 5.6
2017-Jul-20 10:30N 59°41' E 018°58'3 5.7
2017-Jul-20 10:00N 59°39' E 018°54'3 6.1
2017-Jul-20 09:30N 59°38' E 018°48'2 3.7
2017-Jul-20 09:00N 59°38' E 018°45'0 0.0
2017-Jul-20 08:07N 59°38' E 018°45'0 0.0
2017-Jul-20 07:46N 59°38' E 018°45'0 0.0
2017-Jul-20 07:28N 59°38' E 018°45'0 0.0
2017-Jul-20 06:53N 59°38' E 018°45'0 0.1
2017-Jul-20 06:30N 59°38' E 018°45'0 0.0
2017-Jul-20 06:01N 59°38' E 018°45'0 0.0
2017-Jul-20 05:30N 59°38' E 018°45'0 0.0
2017-Jul-20 05:00N 59°38' E 018°45'0 0.0
2017-Jul-20 04:30N 59°38' E 018°45'0 0.0
2017-Jul-20 03:51N 59°38' E 018°45'0 0.0
2017-Jul-20 03:31N 59°38' E 018°45'0 0.0
2017-Jul-20 03:01N 59°38' E 018°45'0 0.0
2017-Jul-20 02:28N 59°38' E 018°45'0 0.0
2017-Jul-20 01:58N 59°38' E 018°45'0 0.0
2017-Jul-20 01:28N 59°38' E 018°45'0 0.0
2017-Jul-20 00:58N 59°38' E 018°45'0 0.0
2017-Jul-20 00:29N 59°38' E 018°45'0 0.0
2017-Jul-19 23:56N 59°38' E 018°45'0 0.0
2017-Jul-19 22:34N 59°38' E 018°45'0 0.0
2017-Jul-19 21:27N 59°38' E 018°45'14 4.8
2017-Jul-19 18:32N 59°28' E 018°25'0 5.6
2017-Jul-19 18:30N 59°28' E 018°25'4 5.1
2017-Jul-19 17:41N 59°24' E 018°21'1 6.0
2017-Jul-19 17:30N 59°23' E 018°20'3 5.5
2017-Jul-19 17:00N 59°22' E 018°16'3 6.0
2017-Jul-19 16:31N 59°20' E 018°11'3 5.7
2017-Jul-19 16:00N 59°19' E 018°06'1 1.0
2017-Jul-19 15:25N 59°20' E 018°05'0 0.0
2017-Jul-19 14:55N 59°20' E 018°05'0 0.0
2017-Jul-19 14:19N 59°20' E 018°05'0 0.0
2017-Jul-19 13:55N 59°20' E 018°05'0 0.0
2017-Jul-19 13:25N 59°20' E 018°05'0 0.0
2017-Jul-19 12:37N 59°20' E 018°05'0 0.0
2017-Jul-19 12:25N 59°20' E 018°05'0 0.0
2017-Jul-19 11:49N 59°20' E 018°05'0 0.0
2017-Jul-19 11:19N 59°20' E 018°05'0 0.0
2017-Jul-19 10:55N 59°20' E 018°05'0 0.0
2017-Jul-19 10:25N 59°20' E 018°05'0 0.0
2017-Jul-19 09:55N 59°20' E 018°05'0 0.0
2017-Jul-19 09:25N 59°20' E 018°05'0 0.0
2017-Jul-19 08:49N 59°20' E 018°05'0 0.0
2017-Jul-19 08:25N 59°20' E 018°05'0 0.0
2017-Jul-19 07:49N 59°20' E 018°05'0 0.0
2017-Jul-19 07:25N 59°20' E 018°05'0 0.0
2017-Jul-19 06:55N 59°20' E 018°05'0 0.0
2017-Jul-19 06:25N 59°20' E 018°05'0 0.0
2017-Jul-19 05:49N 59°20' E 018°05'0 0.0
2017-Jul-19 05:25N 59°20' E 018°05'0 0.0
2017-Jul-19 04:49N 59°20' E 018°05'0 0.0
2017-Jul-19 04:25N 59°20' E 018°05'0 0.0
2017-Jul-19 03:49N 59°20' E 018°05'0 0.0
2017-Jul-19 03:19N 59°20' E 018°05'0 0.0
2017-Jul-19 02:55N 59°20' E 018°05'0 0.0
2017-Jul-19 02:25N 59°20' E 018°05'0 0.0
2017-Jul-19 01:49N 59°20' E 018°05'0 0.0
2017-Jul-19 01:25N 59°20' E 018°05'0 0.0
2017-Jul-19 00:55N 59°20' E 018°05'0 0.0
2017-Jul-19 00:25N 59°20' E 018°05'0 0.0
2017-Jul-18 23:55N 59°20' E 018°05'0 0.0
2017-Jul-18 23:25N 59°20' E 018°05'0 0.0
2017-Jul-18 22:55N 59°20' E 018°05'0 0.0
2017-Jul-18 22:25N 59°20' E 018°05'0 0.0
2017-Jul-18 21:55N 59°20' E 018°05'0 0.0
2017-Jul-18 21:25N 59°20' E 018°05'0 0.0
2017-Jul-18 20:55N 59°20' E 018°05'0 0.0
2017-Jul-18 20:25N 59°20' E 018°05'0 0.0
2017-Jul-18 19:55N 59°20' E 018°05'0 0.0
2017-Jul-18 19:28N 59°20' E 018°05'0 0.0
2017-Jul-18 18:58N 59°20' E 018°05'0 0.0
2017-Jul-18 18:04N 59°20' E 018°05'0 0.0
2017-Jul-18 17:58N 59°20' E 018°05'0 0.0
2017-Jul-18 17:28N 59°20' E 018°05'0 0.0
2017-Jul-18 16:58N 59°20' E 018°05'0 0.0
2017-Jul-18 16:28N 59°20' E 018°05'0 0.0
2017-Jul-18 15:46N 59°20' E 018°05'0 0.0
2017-Jul-18 15:16N 59°20' E 018°05'0 0.0
2017-Jul-18 14:58N 59°20' E 018°05'0 0.0
2017-Jul-18 13:58N 59°20' E 018°05'0 0.0
2017-Jul-18 13:28N 59°20' E 018°05'0 0.0
2017-Jul-18 12:57N 59°20' E 018°05'0 0.0
2017-Jul-18 12:22N 59°20' E 018°05'0 0.0
2017-Jul-18 11:46N 59°20' E 018°05'0 0.0
2017-Jul-18 11:22N 59°20' E 018°05'0 0.0
2017-Jul-18 10:58N 59°20' E 018°05'0 0.0
2017-Jul-18 10:28N 59°20' E 018°05'0 0.0
2017-Jul-18 09:46N 59°20' E 018°05'0 0.0
2017-Jul-18 09:28N 59°20' E 018°05'0 0.0
2017-Jul-18 08:52N 59°20' E 018°05'0 0.0
2017-Jul-18 08:22N 59°20' E 018°05'0 0.0
2017-Jul-18 07:52N 59°20' E 018°05'0 0.0
2017-Jul-18 07:28N 59°20' E 018°05'0 0.0
2017-Jul-18 06:58N 59°20' E 018°05'0 0.0
2017-Jul-18 06:27N 59°20' E 018°05'0 0.0
2017-Jul-18 05:58N 59°20' E 018°05'0 0.0
2017-Jul-18 05:28N 59°20' E 018°05'0 0.0
2017-Jul-18 04:58N 59°20' E 018°05'0 0.0
2017-Jul-18 04:22N 59°20' E 018°05'0 0.0
2017-Jul-18 03:58N 59°20' E 018°05'0 0.0
2017-Jul-18 03:28N 59°20' E 018°05'0 0.0
2017-Jul-18 02:58N 59°20' E 018°05'0 0.0
2017-Jul-18 02:28N 59°20' E 018°05'0 0.0
2017-Jul-18 01:58N 59°20' E 018°05'0 0.0
2017-Jul-18 01:22N 59°20' E 018°05'0 0.0
2017-Jul-18 00:57N 59°20' E 018°05'0 0.0
2017-Jul-18 00:22N 59°20' E 018°05'0 0.0
2017-Jul-17 23:40N 59°20' E 018°05'0 0.0
2017-Jul-17 23:28N 59°20' E 018°05'0 0.0
2017-Jul-17 22:58N 59°20' E 018°05'0 0.0
2017-Jul-17 22:22N 59°20' E 018°05'0 0.0
2017-Jul-17 21:52N 59°20' E 018°05'0 0.0
2017-Jul-17 21:22N 59°20' E 018°05'0 0.0
2017-Jul-17 20:52N 59°20' E 018°05'0 0.0
2017-Jul-17 20:22N 59°20' E 018°05'0 0.0
2017-Jul-17 19:40N 59°20' E 018°05'0 0.0
2017-Jul-17 19:22N 59°20' E 018°05'0 0.0
2017-Jul-17 18:46N 59°20' E 018°05'0 0.0
2017-Jul-17 18:28N 59°20' E 018°05'0 0.0
2017-Jul-17 17:52N 59°20' E 018°05'0 0.0
2017-Jul-17 17:22N 59°20' E 018°05'0 0.0
2017-Jul-17 16:58N 59°20' E 018°05'0 0.0
2017-Jul-17 16:28N 59°20' E 018°05'0 0.0
2017-Jul-17 15:58N 59°20' E 018°05'0 0.0
2017-Jul-17 15:28N 59°20' E 018°05'0 0.0
2017-Jul-17 14:58N 59°20' E 018°05'0 0.0
2017-Jul-17 14:28N 59°20' E 018°05'0 0.0
2017-Jul-17 13:22N 59°20' E 018°05'0 0.0
2017-Jul-17 12:58N 59°20' E 018°05'0 0.0
2017-Jul-17 12:28N 59°20' E 018°05'0 0.0
2017-Jul-17 11:58N 59°20' E 018°05'0 0.0
2017-Jul-17 11:28N 59°20' E 018°05'0 0.0
2017-Jul-17 10:58N 59°20' E 018°05'0 0.0
2017-Jul-17 09:40N 59°20' E 018°05'0 0.0
2017-Jul-17 09:28N 59°20' E 018°05'0 0.0
2017-Jul-17 08:58N 59°20' E 018°05'0 0.0
2017-Jul-17 08:28N 59°20' E 018°05'0 0.1
2017-Jul-17 08:00N 59°20' E 018°05'2 3.8
2017-Jul-17 07:30N 59°19' E 018°09'3 5.9
2017-Jul-17 07:00N 59°21' E 018°14'3 0.2
2017-Jul-16 16:50N 59°21' E 018°20'2 4.8
2017-Jul-16 16:30N 59°23' E 018°20'5 4.0
2017-Jul-16 15:19N 59°25' E 018°28'1 4.0
2017-Jul-16 15:00N 59°25' E 018°31'3 5.0
2017-Jul-16 14:30N 59°24' E 018°36'2 4.8
2017-Jul-16 14:00N 59°26' E 018°39'2 4.8
2017-Jul-16 13:30N 59°27' E 018°43'1 1.8
2017-Jul-16 12:59N 59°27' E 018°45'1 2.4
2017-Jul-16 12:30N 59°26' E 018°43'1 1.7
2017-Jul-16 11:58N 59°26' E 018°41'1 1.7
2017-Jul-16 11:30N 59°26' E 018°42'2 3.6
2017-Jul-16 11:00N 59°26' E 018°45'0 0.2
2017-Jul-16 10:28N 59°26' E 018°45'0 0.0
2017-Jul-16 09:43N 59°26' E 018°45'0 0.0
2017-Jul-16 09:25N 59°26' E 018°45'0 0.0
2017-Jul-16 08:56N 59°26' E 018°45'0 0.0
2017-Jul-16 08:30N 59°26' E 018°45'0 0.0
2017-Jul-16 07:55N 59°26' E 018°45'0 0.0
2017-Jul-16 07:27N 59°26' E 018°45'0 0.0
2017-Jul-16 07:00N 59°26' E 018°45'0 0.0
2017-Jul-16 06:28N 59°26' E 018°45'0 0.0
2017-Jul-16 06:00N 59°26' E 018°45'0 0.0
2017-Jul-16 05:28N 59°26' E 018°45'0 0.0
2017-Jul-16 04:57N 59°26' E 018°45'0 0.0
2017-Jul-16 04:30N 59°26' E 018°45'0 0.0
2017-Jul-16 03:30N 59°26' E 018°45'0 0.0
2017-Jul-16 02:53N 59°26' E 018°45'0 0.0
2017-Jul-16 02:11N 59°26' E 018°45'0 0.0
2017-Jul-16 01:58N 59°26' E 018°45'0 0.0
2017-Jul-16 01:27N 59°26' E 018°45'0 0.0
2017-Jul-16 00:58N 59°26' E 018°45'0 0.0
2017-Jul-16 00:24N 59°26' E 018°45'0 0.0
2017-Jul-15 23:56N 59°26' E 018°45'0 0.0
2017-Jul-15 23:28N 59°26' E 018°45'0 0.0
2017-Jul-15 22:58N 59°26' E 018°45'0 0.0
2017-Jul-15 22:28N 59°26' E 018°45'0 0.0
2017-Jul-15 22:00N 59°26' E 018°45'0 0.0
2017-Jul-15 21:25N 59°26' E 018°45'0 0.0
2017-Jul-15 20:54N 59°26' E 018°45'0 0.0
2017-Jul-15 20:30N 59°26' E 018°45'0 0.0
2017-Jul-15 19:58N 59°26' E 018°45'1 1.5
2017-Jul-15 19:30N 59°26' E 018°44'3 4.8
2017-Jul-15 18:58N 59°26' E 018°39'3 5.7
2017-Jul-15 18:30N 59°24' E 018°34'3 6.2
2017-Jul-15 18:00N 59°25' E 018°29'3 6.4
2017-Jul-15 17:30N 59°26' E 018°23'2 5.1
2017-Jul-15 17:01N 59°24' E 018°21'3 5.8
2017-Jul-15 16:30N 59°22' E 018°16'3 6.4
2017-Jul-15 16:00N 59°20' E 018°11'3 5.7
2017-Jul-15 15:31N 59°19' E 018°06'0 1.0
2017-Jul-15 15:00N 59°20' E 018°05'0 0.0
2017-Jul-15 13:49N 59°20' E 018°05'0 0.0
2017-Jul-15 13:30N 59°20' E 018°05'0 0.0
2017-Jul-15 13:00N 59°20' E 018°05'0 0.0
2017-Jul-15 12:24N 59°20' E 018°05'0 0.0
2017-Jul-15 11:55N 59°20' E 018°05'0 0.0
2017-Jul-15 11:30N 59°20' E 018°05'0 0.0
2017-Jul-15 11:01N 59°20' E 018°05'0 0.0
2017-Jul-15 10:30N 59°20' E 018°05'0 0.0
2017-Jul-15 10:01N 59°20' E 018°05'1 1.2
2017-Jul-15 09:30N 59°19' E 018°06'3 5.5
2017-Jul-15 09:00N 59°20' E 018°11'3 5.2
2017-Jul-15 08:30N 59°21' E 018°15'2 4.0
2017-Jul-15 07:59N 59°21' E 018°19'  
Track history (hours):
 
Tides and Currents Weather Stations Pressure Air Temp Water Temp Dewpoint Dewpoint Depression Visibility Wind Speed Wind Dir Waves Ship Positions

Shamrock

Last reported at 2017-Jul-25 07:40 UTC. Time now 2017-Jul-26 00:49 UTC.
Position N 62°36' E 018°05'.

Length 26 m; draft 3 m.

Type: Sailing vessel. MMSI: 265572260.

Date/timePositionNaut miles runAvg speedWind from/ knotsBaromVisibWave heightAir tempDewpointWater temp
2017-Jul-25 07:40N 62°36' E 018°05'2 4.2
2017-Jul-25 07:15N 62°34' E 018°03'91 2.0
2017-Jul-23 08:57N 61°04' E 017°42'6 2.4
2017-Jul-23 06:30N 60°58' E 017°47'2 3.1
2017-Jul-23 05:55N 60°57' E 017°48'1 2.9
2017-Jul-23 05:30N 60°56' E 017°49'4 3.6
2017-Jul-23 04:28N 60°52' E 017°52'2 2.6
2017-Jul-23 03:49N 60°51' E 017°54'1 2.3
2017-Jul-23 03:30N 60°50' E 017°54'2 2.7
2017-Jul-23 02:55N 60°49' E 017°56'2 2.6
2017-Jul-23 02:15N 60°47' E 017°57'0 0.1
2017-Jul-23 01:18N 60°47' E 017°58'0 0.2
2017-Jul-23 01:01N 60°47' E 017°58'0 0.2
2017-Jul-23 00:30N 60°47' E 017°58'0 0.2
2017-Jul-23 00:01N 60°47' E 017°58'0 0.3
2017-Jul-22 23:30N 60°47' E 017°58'0 0.3
2017-Jul-22 23:00N 60°47' E 017°58'0 0.5
2017-Jul-22 22:30N 60°46' E 017°58'0 0.7
2017-Jul-22 22:00N 60°46' E 017°59'0 0.9
2017-Jul-22 21:30N 60°46' E 017°59'1 1.8
2017-Jul-22 21:00N 60°45' E 017°60'1 2.3
2017-Jul-22 20:30N 60°44' E 018°01'1 2.3
2017-Jul-22 20:01N 60°43' E 018°02'1 2.4
2017-Jul-22 19:30N 60°42' E 018°03'1 2.2
2017-Jul-22 19:01N 60°41' E 018°04'1 2.8
2017-Jul-22 18:31N 60°40' E 018°06'2 3.0
2017-Jul-22 18:01N 60°38' E 018°07'1 2.1
2017-Jul-22 17:30N 60°37' E 018°08'1 2.8
2017-Jul-22 16:59N 60°36' E 018°09'28 4.5
2017-Jul-22 10:48N 60°14' E 018°43'2 5.9
2017-Jul-22 10:28N 60°13' E 018°46'3 5.9
2017-Jul-22 10:00N 60°11' E 018°50'3 5.9
2017-Jul-22 09:30N 60°08' E 018°53'1 1.6
2017-Jul-22 09:00N 60°08' E 018°54'1 1.8
2017-Jul-22 08:30N 60°07' E 018°55'1 1.7
2017-Jul-22 08:00N 60°06' E 018°56'1 1.1
2017-Jul-22 07:31N 60°06' E 018°56'1 1.1
2017-Jul-22 07:00N 60°05' E 018°57'1 2.1
2017-Jul-22 06:30N 60°04' E 018°57'1 1.9
2017-Jul-22 06:00N 60°03' E 018°58'1 2.4
2017-Jul-22 05:30N 60°02' E 018°59'1 2.3
2017-Jul-22 05:00N 60°01' E 019°00'1 2.1
2017-Jul-22 04:30N 60°00' E 019°01'1 2.2
2017-Jul-22 04:00N 59°59' E 019°03'1 2.6
2017-Jul-22 03:30N 59°58' E 019°04'1 2.2
2017-Jul-22 03:00N 59°57' E 019°05'1 1.7
2017-Jul-22 02:30N 59°57' E 019°06'0 0.7
2017-Jul-22 02:00N 59°56' E 019°06'0 0.3
2017-Jul-22 01:30N 59°56' E 019°06'0 0.3
2017-Jul-22 01:00N 59°56' E 019°06'0 0.3
2017-Jul-22 00:30N 59°56' E 019°06'0 0.2
2017-Jul-22 00:00N 59°56' E 019°06'0 0.2
2017-Jul-21 23:30N 59°56' E 019°06'0 0.1
2017-Jul-21 23:00N 59°56' E 019°05'0 0.1
2017-Jul-21 22:30N 59°56' E 019°05'0 0.1
2017-Jul-21 22:00N 59°56' E 019°05'0 0.3
2017-Jul-21 21:30N 59°56' E 019°05'2 4.4
2017-Jul-21 21:00N 59°54' E 019°07'1 2.6
2017-Jul-21 20:30N 59°53' E 019°08'2 3.9
2017-Jul-21 20:00N 59°51' E 019°08'0 0.5
2017-Jul-21 19:28N 59°51' E 019°07'0 0.0
2017-Jul-21 18:55N 59°51' E 019°07'0 0.0
2017-Jul-21 18:28N 59°51' E 019°07'0 0.0
2017-Jul-21 17:58N 59°51' E 019°07'0 0.0
2017-Jul-21 17:28N 59°51' E 019°07'0 0.0
2017-Jul-21 16:55N 59°51' E 019°07'0 0.0
2017-Jul-21 16:26N 59°51' E 019°07'0 0.0
2017-Jul-21 15:58N 59°51' E 019°07'0 0.0
2017-Jul-21 15:25N 59°51' E 019°07'0 0.0
2017-Jul-21 14:49N 59°51' E 019°07'0 0.0
2017-Jul-21 14:28N 59°51' E 019°07'0 0.0
2017-Jul-21 13:58N 59°51' E 019°07'0 0.0
2017-Jul-21 13:28N 59°51' E 019°07'0 0.0
2017-Jul-21 12:58N 59°51' E 019°07'0 0.0
2017-Jul-21 12:28N 59°51' E 019°07'0 0.0
2017-Jul-21 11:55N 59°51' E 019°07'0 0.0
2017-Jul-21 11:25N 59°51' E 019°07'0 0.0
2017-Jul-21 10:58N 59°51' E 019°07'0 0.0
2017-Jul-21 10:28N 59°51' E 019°07'0 0.0
2017-Jul-21 09:58N 59°51' E 019°07'0 0.0
2017-Jul-21 09:25N 59°51' E 019°07'0 0.0
2017-Jul-21 08:58N 59°51' E 019°07'0 0.0
2017-Jul-21 08:28N 59°51' E 019°07'0 0.0
2017-Jul-21 07:58N 59°51' E 019°07'0 0.0
2017-Jul-21 07:28N 59°51' E 019°07'0 0.0
2017-Jul-21 06:58N 59°51' E 019°07'0 0.0
2017-Jul-21 06:28N 59°51' E 019°07'0 0.0
2017-Jul-21 05:58N 59°51' E 019°07'0 0.0
2017-Jul-21 05:28N 59°51' E 019°07'0 0.0
2017-Jul-21 04:58N 59°51' E 019°07'0 0.0
2017-Jul-21 04:28N 59°51' E 019°07'0 0.0
2017-Jul-21 03:58N 59°51' E 019°07'0 0.0
2017-Jul-21 03:28N 59°51' E 019°08'0 0.0
2017-Jul-21 02:58N 59°51' E 019°07'0 0.0
2017-Jul-21 02:28N 59°51' E 019°07'0 0.0
2017-Jul-21 01:58N 59°51' E 019°07'0 0.0
2017-Jul-21 01:22N 59°51' E 019°07'0 0.0
2017-Jul-21 00:58N 59°51' E 019°07'0 0.0
2017-Jul-21 00:25N 59°51' E 019°07'0 0.0
2017-Jul-20 23:58N 59°51' E 019°07'0 0.0
2017-Jul-20 23:28N 59°51' E 019°07'0 0.0
2017-Jul-20 22:58N 59°51' E 019°08'0 0.0
2017-Jul-20 22:25N 59°51' E 019°07'0 0.0
2017-Jul-20 21:52N 59°51' E 019°07'0 0.0
2017-Jul-20 21:28N 59°51' E 019°07'0 0.0
2017-Jul-20 20:59N 59°51' E 019°08'0 0.0
2017-Jul-20 20:16N 59°51' E 019°07'0 0.0
2017-Jul-20 19:52N 59°51' E 019°07'0 0.0
2017-Jul-20 19:28N 59°51' E 019°08'0 0.0
2017-Jul-20 18:58N 59°51' E 019°07'0 0.0
2017-Jul-20 18:28N 59°51' E 019°07'0 0.0
2017-Jul-20 17:55N 59°51' E 019°07'0 0.0
2017-Jul-20 17:28N 59°51' E 019°07'0 0.0
2017-Jul-20 16:55N 59°51' E 019°07'0 0.0
2017-Jul-20 16:29N 59°51' E 019°07'0 0.0
2017-Jul-20 15:58N 59°51' E 019°07'0 0.0
2017-Jul-20 15:28N 59°51' E 019°07'0 0.0
2017-Jul-20 14:58N 59°51' E 019°07'0 0.0
2017-Jul-20 13:58N 59°51' E 019°07'0 0.0
2017-Jul-20 13:28N 59°51' E 019°07'0 0.0
2017-Jul-20 13:00N 59°51' E 019°07'1 2.3
2017-Jul-20 12:30N 59°49' E 019°08'3 5.0
2017-Jul-20 12:00N 59°47' E 019°07'3 5.4
2017-Jul-20 11:30N 59°44' E 019°06'3 5.2
2017-Jul-20 11:01N 59°42' E 019°03'3 5.6
2017-Jul-20 10:30N 59°41' E 018°58'3 5.7
2017-Jul-20 10:00N 59°39' E 018°54'3 6.1
2017-Jul-20 09:30N 59°38' E 018°48'2 3.7
2017-Jul-20 09:00N 59°38' E 018°45'0 0.0
2017-Jul-20 08:07N 59°38' E 018°45'0 0.0
2017-Jul-20 07:46N 59°38' E 018°45'0 0.0
2017-Jul-20 07:28N 59°38' E 018°45'0 0.0
2017-Jul-20 06:53N 59°38' E 018°45'0 0.1
2017-Jul-20 06:30N 59°38' E 018°45'0 0.0
2017-Jul-20 06:01N 59°38' E 018°45'0 0.0
2017-Jul-20 05:30N 59°38' E 018°45'0 0.0
2017-Jul-20 05:00N 59°38' E 018°45'0 0.0
2017-Jul-20 04:30N 59°38' E 018°45'0 0.0
2017-Jul-20 03:51N 59°38' E 018°45'0 0.0
2017-Jul-20 03:31N 59°38' E 018°45'0 0.0
2017-Jul-20 03:01N 59°38' E 018°45'0 0.0
2017-Jul-20 02:28N 59°38' E 018°45'0 0.0
2017-Jul-20 01:58N 59°38' E 018°45'0 0.0
2017-Jul-20 01:28N 59°38' E 018°45'0 0.0
2017-Jul-20 00:58N 59°38' E 018°45'0 0.0
2017-Jul-20 00:29N 59°38' E 018°45'0 0.0
2017-Jul-19 23:56N 59°38' E 018°45'0 0.0
2017-Jul-19 22:34N 59°38' E 018°45'0 0.0
2017-Jul-19 21:27N 59°38' E 018°45'14 4.8
2017-Jul-19 18:32N 59°28' E 018°25'0 5.6
2017-Jul-19 18:30N 59°28' E 018°25'4 5.1
2017-Jul-19 17:41N 59°24' E 018°21'1 6.0
2017-Jul-19 17:30N 59°23' E 018°20'3 5.5
2017-Jul-19 17:00N 59°22' E 018°16'3 6.0
2017-Jul-19 16:31N 59°20' E 018°11'3 5.7
2017-Jul-19 16:00N 59°19' E 018°06'1 1.0
2017-Jul-19 15:25N 59°20' E 018°05'0 0.0
2017-Jul-19 14:55N 59°20' E 018°05'0 0.0
2017-Jul-19 14:19N 59°20' E 018°05'0 0.0
2017-Jul-19 13:55N 59°20' E 018°05'0 0.0
2017-Jul-19 13:25N 59°20' E 018°05'0 0.0
2017-Jul-19 12:37N 59°20' E 018°05'0 0.0
2017-Jul-19 12:25N 59°20' E 018°05'0 0.0
2017-Jul-19 11:49N 59°20' E 018°05'0 0.0
2017-Jul-19 11:19N 59°20' E 018°05'0 0.0
2017-Jul-19 10:55N 59°20' E 018°05'0 0.0
2017-Jul-19 10:25N 59°20' E 018°05'0 0.0
2017-Jul-19 09:55N 59°20' E 018°05'0 0.0
2017-Jul-19 09:25N 59°20' E 018°05'0 0.0
2017-Jul-19 08:49N 59°20' E 018°05'0 0.0
2017-Jul-19 08:25N 59°20' E 018°05'0 0.0
2017-Jul-19 07:49N 59°20' E 018°05'0 0.0
2017-Jul-19 07:25N 59°20' E 018°05'0 0.0
2017-Jul-19 06:55N 59°20' E 018°05'0 0.0
2017-Jul-19 06:25N 59°20' E 018°05'0 0.0
2017-Jul-19 05:49N 59°20' E 018°05'0 0.0
2017-Jul-19 05:25N 59°20' E 018°05'0 0.0
2017-Jul-19 04:49N 59°20' E 018°05'0 0.0
2017-Jul-19 04:25N 59°20' E 018°05'0 0.0
2017-Jul-19 03:49N 59°20' E 018°05'0 0.0
2017-Jul-19 03:19N 59°20' E 018°05'0 0.0
2017-Jul-19 02:55N 59°20' E 018°05'0 0.0
2017-Jul-19 02:25N 59°20' E 018°05'0 0.0
2017-Jul-19 01:49N 59°20' E 018°05'0 0.0
2017-Jul-19 01:25N 59°20' E 018°05'0 0.0
2017-Jul-19 00:55N 59°20' E 018°05'0 0.0
2017-Jul-19 00:25N 59°20' E 018°05'0 0.0
2017-Jul-18 23:55N 59°20' E 018°05'0 0.0
2017-Jul-18 23:25N 59°20' E 018°05'0 0.0
2017-Jul-18 22:55N 59°20' E 018°05'0 0.0
2017-Jul-18 22:25N 59°20' E 018°05'0 0.0
2017-Jul-18 21:55N 59°20' E 018°05'0 0.0
2017-Jul-18 21:25N 59°20' E 018°05'0 0.0
2017-Jul-18 20:55N 59°20' E 018°05'0 0.0
2017-Jul-18 20:25N 59°20' E 018°05'0 0.0
2017-Jul-18 19:55N 59°20' E 018°05'0 0.0
2017-Jul-18 19:28N 59°20' E 018°05'0 0.0
2017-Jul-18 18:58N 59°20' E 018°05'0 0.0
2017-Jul-18 18:04N 59°20' E 018°05'0 0.0
2017-Jul-18 17:58N 59°20' E 018°05'0 0.0
2017-Jul-18 17:28N 59°20' E 018°05'0 0.0
2017-Jul-18 16:58N 59°20' E 018°05'0 0.0
2017-Jul-18 16:28N 59°20' E 018°05'0 0.0
2017-Jul-18 15:46N 59°20' E 018°05'0 0.0
2017-Jul-18 15:16N 59°20' E 018°05'0 0.0
2017-Jul-18 14:58N 59°20' E 018°05'0 0.0
2017-Jul-18 13:58N 59°20' E 018°05'0 0.0
2017-Jul-18 13:28N 59°20' E 018°05'0 0.0
2017-Jul-18 12:57N 59°20' E 018°05'0 0.0
2017-Jul-18 12:22N 59°20' E 018°05'0 0.0
2017-Jul-18 11:46N 59°20' E 018°05'0 0.0
2017-Jul-18 11:22N 59°20' E 018°05'0 0.0
2017-Jul-18 10:58N 59°20' E 018°05'0 0.0
2017-Jul-18 10:28N 59°20' E 018°05'0 0.0
2017-Jul-18 09:46N 59°20' E 018°05'0 0.0
2017-Jul-18 09:28N 59°20' E 018°05'0 0.0
2017-Jul-18 08:52N 59°20' E 018°05'0 0.0
2017-Jul-18 08:22N 59°20' E 018°05'0 0.0
2017-Jul-18 07:52N 59°20' E 018°05'0 0.0
2017-Jul-18 07:28N 59°20' E 018°05'0 0.0
2017-Jul-18 06:58N 59°20' E 018°05'0 0.0
2017-Jul-18 06:27N 59°20' E 018°05'0 0.0
2017-Jul-18 05:58N 59°20' E 018°05'0 0.0
2017-Jul-18 05:28N 59°20' E 018°05'0 0.0
2017-Jul-18 04:58N 59°20' E 018°05'0 0.0
2017-Jul-18 04:22N 59°20' E 018°05'0 0.0
2017-Jul-18 03:58N 59°20' E 018°05'0 0.0
2017-Jul-18 03:28N 59°20' E 018°05'0 0.0
2017-Jul-18 02:58N 59°20' E 018°05'0 0.0
2017-Jul-18 02:28N 59°20' E 018°05'0 0.0
2017-Jul-18 01:58N 59°20' E 018°05'0 0.0
2017-Jul-18 01:22N 59°20' E 018°05'0 0.0
2017-Jul-18 00:57N 59°20' E 018°05'0 0.0
2017-Jul-18 00:22N 59°20' E 018°05'0 0.0
2017-Jul-17 23:40N 59°20' E 018°05'0 0.0
2017-Jul-17 23:28N 59°20' E 018°05'0 0.0
2017-Jul-17 22:58N 59°20' E 018°05'0 0.0
2017-Jul-17 22:22N 59°20' E 018°05'0 0.0
2017-Jul-17 21:52N 59°20' E 018°05'0 0.0
2017-Jul-17 21:22N 59°20' E 018°05'0 0.0
2017-Jul-17 20:52N 59°20' E 018°05'0 0.0
2017-Jul-17 20:22N 59°20' E 018°05'0 0.0
2017-Jul-17 19:40N 59°20' E 018°05'0 0.0
2017-Jul-17 19:22N 59°20' E 018°05'0 0.0
2017-Jul-17 18:46N 59°20' E 018°05'0 0.0
2017-Jul-17 18:28N 59°20' E 018°05'0 0.0
2017-Jul-17 17:52N 59°20' E 018°05'0 0.0
2017-Jul-17 17:22N 59°20' E 018°05'0 0.0
2017-Jul-17 16:58N 59°20' E 018°05'0 0.0
2017-Jul-17 16:28N 59°20' E 018°05'0 0.0
2017-Jul-17 15:58N 59°20' E 018°05'0 0.0
2017-Jul-17 15:28N 59°20' E 018°05'0 0.0
2017-Jul-17 14:58N 59°20' E 018°05'0 0.0
2017-Jul-17 14:28N 59°20' E 018°05'0 0.0
2017-Jul-17 13:22N 59°20' E 018°05'0 0.0
2017-Jul-17 12:58N 59°20' E 018°05'0 0.0
2017-Jul-17 12:28N 59°20' E 018°05'0 0.0
2017-Jul-17 11:58N 59°20' E 018°05'0 0.0
2017-Jul-17 11:28N 59°20' E 018°05'0 0.0
2017-Jul-17 10:58N 59°20' E 018°05'0 0.0
2017-Jul-17 09:40N 59°20' E 018°05'0 0.0
2017-Jul-17 09:28N 59°20' E 018°05'0 0.0
2017-Jul-17 08:58N 59°20' E 018°05'0 0.0
2017-Jul-17 08:28N 59°20' E 018°05'0 0.1
2017-Jul-17 08:00N 59°20' E 018°05'2 3.8
2017-Jul-17 07:30N 59°19' E 018°09'3 5.9
2017-Jul-17 07:00N 59°21' E 018°14'3 0.2
2017-Jul-16 16:50N 59°21' E 018°20'2 4.8
2017-Jul-16 16:30N 59°23' E 018°20'5 4.0
2017-Jul-16 15:19N 59°25' E 018°28'1 4.0
2017-Jul-16 15:00N 59°25' E 018°31'3 5.0
2017-Jul-16 14:30N 59°24' E 018°36'2 4.8
2017-Jul-16 14:00N 59°26' E 018°39'2 4.8
2017-Jul-16 13:30N 59°27' E 018°43'1 1.8
2017-Jul-16 12:59N 59°27' E 018°45'1 2.4
2017-Jul-16 12:30N 59°26' E 018°43'1 1.7
2017-Jul-16 11:58N 59°26' E 018°41'1 1.7
2017-Jul-16 11:30N 59°26' E 018°42'2 3.6
2017-Jul-16 11:00N 59°26' E 018°45'0 0.2
2017-Jul-16 10:28N 59°26' E 018°45'0 0.0
2017-Jul-16 09:43N 59°26' E 018°45'0 0.0
2017-Jul-16 09:25N 59°26' E 018°45'0 0.0
2017-Jul-16 08:56N 59°26' E 018°45'0 0.0
2017-Jul-16 08:30N 59°26' E 018°45'0 0.0
2017-Jul-16 07:55N 59°26' E 018°45'0 0.0
2017-Jul-16 07:27N 59°26' E 018°45'0 0.0
2017-Jul-16 07:00N 59°26' E 018°45'0 0.0
2017-Jul-16 06:28N 59°26' E 018°45'0 0.0
2017-Jul-16 06:00N 59°26' E 018°45'0 0.0
2017-Jul-16 05:28N 59°26' E 018°45'0 0.0
2017-Jul-16 04:57N 59°26' E 018°45'0 0.0
2017-Jul-16 04:30N 59°26' E 018°45'0 0.0
2017-Jul-16 03:30N 59°26' E 018°45'0 0.0
2017-Jul-16 02:53N 59°26' E 018°45'0 0.0
2017-Jul-16 02:11N 59°26' E 018°45'0 0.0
2017-Jul-16 01:58N 59°26' E 018°45'0 0.0
2017-Jul-16 01:27N 59°26' E 018°45'0 0.0
2017-Jul-16 00:58N 59°26' E 018°45'0 0.0
2017-Jul-16 00:24N 59°26' E 018°45'0 0.0
2017-Jul-15 23:56N 59°26' E 018°45'0 0.0
2017-Jul-15 23:28N 59°26' E 018°45'0 0.0
2017-Jul-15 22:58N 59°26' E 018°45'0 0.0
2017-Jul-15 22:28N 59°26' E 018°45'0 0.0
2017-Jul-15 22:00N 59°26' E 018°45'0 0.0
2017-Jul-15 21:25N 59°26' E 018°45'0 0.0
2017-Jul-15 20:54N 59°26' E 018°45'0 0.0
2017-Jul-15 20:30N 59°26' E 018°45'0 0.0
2017-Jul-15 19:58N 59°26' E 018°45'1 1.5
2017-Jul-15 19:30N 59°26' E 018°44'3 4.8
2017-Jul-15 18:58N 59°26' E 018°39'3 5.7
2017-Jul-15 18:30N 59°24' E 018°34'3 6.2
2017-Jul-15 18:00N 59°25' E 018°29'3 6.4
2017-Jul-15 17:30N 59°26' E 018°23'2 5.1
2017-Jul-15 17:01N 59°24' E 018°21'3 5.8
2017-Jul-15 16:30N 59°22' E 018°16'3 6.4
2017-Jul-15 16:00N 59°20' E 018°11'3 5.7
2017-Jul-15 15:31N 59°19' E 018°06'0 1.0
2017-Jul-15 15:00N 59°20' E 018°05'0 0.0
2017-Jul-15 13:49N 59°20' E 018°05'0 0.0
2017-Jul-15 13:30N 59°20' E 018°05'0 0.0
2017-Jul-15 13:00N 59°20' E 018°05'0 0.0
2017-Jul-15 12:24N 59°20' E 018°05'0 0.0
2017-Jul-15 11:55N 59°20' E 018°05'0 0.0
2017-Jul-15 11:30N 59°20' E 018°05'0 0.0
2017-Jul-15 11:01N 59°20' E 018°05'0 0.0
2017-Jul-15 10:30N 59°20' E 018°05'0 0.0
2017-Jul-15 10:01N 59°20' E 018°05'1 1.2
2017-Jul-15 09:30N 59°19' E 018°06'3 5.5
2017-Jul-15 09:00N 59°20' E 018°11'3 5.2
2017-Jul-15 08:30N 59°21' E 018°15'2 4.0
2017-Jul-15 07:59N 59°21' E 018°19'  

Dump ship's entire track history